createdAt,value
2023-04-02T00:02:26.359Z,0.55
2023-04-02T00:05:30.496Z,0.65
2023-04-02T00:07:58.982Z,0.77
2023-04-02T00:10:32.887Z,1.42
2023-04-02T00:13:01.966Z,1.20
2023-04-02T00:15:29.043Z,0.43
2023-04-02T00:17:56.482Z,0.88
2023-04-02T00:20:24.505Z,0.50
2023-04-02T00:22:51.597Z,2.47
2023-04-02T00:25:19.386Z,0.20
2023-04-02T00:27:48.129Z,1.05
2023-04-02T00:30:15.723Z,1.23
2023-04-02T00:32:44.031Z,0.70
2023-04-02T00:35:12.604Z,1.92
2023-04-02T00:40:17.371Z,0.10
2023-04-02T00:42:44.906Z,0.32
2023-04-02T00:45:19.782Z,0.35
2023-04-02T00:47:46.744Z,0.70
2023-04-02T00:50:22.304Z,0.50
2023-04-02T00:52:51.125Z,0.30
2023-04-02T00:55:22.918Z,0.17
2023-04-02T00:57:50.415Z,0.28
2023-04-02T01:00:23.109Z,0.38
2023-04-02T01:03:29.331Z,1.05
2023-04-02T01:06:01.711Z,0.40
2023-04-02T01:08:38.140Z,0.40
2023-04-02T01:11:14.953Z,0.90
2023-04-02T01:13:45.818Z,0.28
2023-04-02T01:16:20.040Z,1.65
2023-04-02T01:18:53.321Z,0.30
2023-04-02T01:21:42.606Z,0.88
2023-04-02T01:24:11.561Z,0.57
2023-04-02T01:26:56.427Z,0.22
2023-04-02T01:29:26.309Z,0.40
2023-04-02T01:31:55.641Z,0.65
2023-04-02T01:34:25.992Z,0.32
2023-04-02T01:37:07.144Z,0.25
2023-04-02T01:39:43.846Z,0.30
2023-04-02T01:42:16.100Z,0.30
2023-04-02T01:44:47.630Z,0.60
2023-04-02T01:47:17.173Z,1.02
2023-04-02T01:49:44.913Z,0.22
2023-04-02T01:52:14.796Z,0.40
2023-04-02T01:54:42.383Z,1.40
2023-04-02T01:57:09.654Z,0.40
2023-04-02T01:59:36.767Z,0.38
2023-04-02T02:02:09.736Z,0.80
2023-04-02T02:04:39.791Z,0.52
2023-04-02T02:07:14.483Z,0.38
2023-04-02T02:09:43.906Z,1.23
2023-04-02T02:12:13.803Z,0.30
2023-04-02T02:14:46.265Z,0.15
2023-04-02T02:17:16.011Z,1.08
2023-04-02T02:19:45.008Z,0.35
2023-04-02T02:22:17.493Z,0.20
2023-04-02T02:24:44.614Z,0.40
2023-04-02T02:27:41.814Z,0.22
2023-04-02T02:30:14.643Z,0.30
2023-04-02T02:32:48.303Z,0.30
2023-04-02T02:35:19.553Z,0.40
2023-04-02T02:37:52.420Z,1.55
2023-04-02T02:40:24.576Z,0.30
2023-04-02T02:42:53.480Z,0.40
2023-04-02T02:45:24.969Z,0.55
2023-04-02T02:47:54.756Z,2.00
2023-04-02T02:50:23.726Z,0.25
2023-04-02T02:52:54.452Z,0.38
2023-04-02T02:55:23.258Z,0.57
2023-04-02T02:58:00.182Z,0.40
2023-04-02T03:00:32.058Z,0.43
2023-04-02T03:03:05.020Z,0.25
2023-04-02T03:05:32.636Z,0.38
2023-04-02T03:08:09.553Z,1.85
2023-04-02T03:10:41.366Z,1.08
2023-04-02T03:13:19.908Z,0.28
2023-04-02T03:15:51.980Z,0.13
2023-04-02T03:18:27.222Z,0.38
2023-04-02T03:20:57.441Z,1.38
2023-04-02T03:23:28.701Z,0.30
2023-04-02T03:25:59.973Z,0.40
2023-04-02T03:28:30.139Z,0.80
2023-04-02T03:31:00.564Z,0.73
2023-04-02T03:33:32.903Z,1.02
2023-04-02T03:36:03.685Z,1.15
2023-04-02T03:38:33.094Z,2.45
2023-04-02T03:41:04.584Z,0.40
2023-04-02T03:43:36.990Z,0.47
2023-04-02T03:46:15.037Z,0.43
2023-04-02T03:48:46.113Z,1.55
2023-04-02T03:51:18.675Z,0.40
2023-04-02T03:53:46.748Z,0.40
2023-04-02T03:56:22.936Z,1.52
2023-04-02T03:58:55.214Z,1.70
2023-04-02T04:01:27.456Z,0.32
2023-04-02T04:04:01.564Z,0.22
2023-04-02T04:06:31.205Z,0.20
2023-04-02T04:09:01.381Z,0.10
2023-04-02T04:11:31.915Z,1.50
2023-04-02T04:14:01.888Z,0.77
2023-04-02T04:16:32.827Z,0.52
2023-04-02T04:19:04.105Z,0.40
2023-04-02T04:21:39.761Z,0.17
2023-04-02T04:24:20.433Z,0.25
2023-04-02T04:26:53.510Z,0.25
2023-04-02T04:29:32.578Z,0.22
2023-04-02T04:32:13.163Z,0.70
2023-04-02T04:34:47.052Z,2.80
2023-04-02T04:37:25.218Z,2.08
2023-04-02T04:39:57.329Z,2.47
2023-04-02T04:42:26.666Z,2.33
2023-04-02T04:44:59.938Z,3.08
2023-04-02T04:47:31.148Z,3.83
2023-04-02T04:50:04.585Z,3.53
2023-04-02T04:52:37.633Z,4.25
2023-04-02T04:55:40.449Z,4.15
2023-04-02T04:58:15.911Z,3.55
2023-04-02T05:00:51.570Z,4.72
2023-04-02T05:03:28.438Z,2.88
2023-04-02T05:06:01.068Z,6.15
2023-04-02T05:08:33.819Z,4.53
2023-04-02T05:11:02.334Z,2.83
2023-04-02T05:13:33.048Z,9.13
2023-04-02T05:16:07.896Z,6.80
2023-04-02T05:18:39.243Z,5.97
2023-04-02T05:21:18.395Z,3.20
2023-04-02T05:23:48.359Z,3.65
2023-04-02T05:26:18.264Z,2.67
2023-04-02T05:28:48.991Z,2.58
2023-04-02T05:31:20.085Z,2.40
2023-04-02T05:33:49.363Z,3.50
2023-04-02T05:36:21.749Z,4.88
2023-04-02T05:38:52.744Z,4.35
2023-04-02T05:41:27.701Z,1.70
2023-04-02T05:44:02.588Z,2.10
2023-04-02T05:46:34.032Z,2.75
2023-04-02T05:49:04.795Z,2.17
2023-04-02T05:51:39.785Z,1.63
2023-04-02T05:54:16.837Z,2.00
2023-04-02T05:56:46.628Z,1.42
2023-04-02T05:59:17.265Z,1.45
2023-04-02T06:01:47.428Z,2.90
2023-04-02T06:04:23.022Z,3.90
2023-04-02T06:06:57.492Z,1.35
2023-04-02T06:09:31.237Z,2.97
2023-04-02T06:12:04.988Z,2.63
2023-04-02T06:14:33.061Z,2.15
2023-04-02T06:17:00.534Z,2.28
2023-04-02T06:19:32.295Z,3.42
2023-04-02T06:22:09.604Z,3.55
2023-04-02T06:24:37.739Z,2.58
2023-04-02T06:27:06.576Z,1.60
2023-04-02T06:29:39.735Z,3.70
2023-04-02T06:32:11.557Z,2.17
2023-04-02T06:34:42.553Z,1.98
2023-04-02T06:37:20.289Z,1.88
2023-04-02T06:39:48.677Z,2.92
2023-04-02T06:42:20.547Z,3.90
2023-04-02T06:45:00.107Z,2.70
2023-04-02T06:47:50.589Z,3.88
2023-04-02T06:50:46.251Z,3.85
2023-04-02T06:53:20.854Z,2.88
2023-04-02T06:55:51.173Z,1.70
2023-04-02T06:58:23.038Z,2.75
2023-04-02T07:00:51.816Z,4.60
2023-04-02T07:03:31.039Z,2.83
2023-04-02T07:06:03.433Z,4.20
2023-04-02T07:08:33.291Z,2.75
2023-04-02T07:11:00.813Z,2.00
2023-04-02T07:13:28.682Z,3.75
2023-04-02T07:15:56.697Z,3.35
2023-04-02T07:18:27.319Z,4.18
2023-04-02T07:20:55.114Z,5.75
2023-04-02T07:23:23.252Z,2.83
2023-04-02T07:25:54.662Z,2.45
2023-04-02T07:28:22.916Z,0.38
2023-04-02T07:30:50.822Z,2.03
2023-04-02T07:33:19.362Z,1.30
2023-04-02T07:35:46.593Z,0.38
2023-04-02T07:38:13.615Z,0.63
2023-04-02T07:40:40.595Z,2.05
2023-04-02T07:43:09.326Z,0.25
2023-04-02T07:45:36.689Z,1.15
2023-04-02T07:48:05.832Z,0.22
2023-04-02T07:50:33.232Z,0.35
2023-04-02T07:53:00.355Z,0.30
2023-04-02T07:55:27.303Z,0.43
2023-04-02T07:57:55.791Z,0.93
2023-04-02T08:00:24.943Z,0.40
2023-04-02T08:02:52.258Z,0.30
2023-04-02T08:05:19.713Z,0.55
2023-04-02T08:07:52.990Z,3.90
2023-04-02T08:10:19.982Z,0.43
2023-04-02T08:12:47.026Z,0.32
2023-04-02T08:15:15.723Z,0.40
2023-04-02T08:17:44.404Z,0.50
2023-04-02T08:20:15.416Z,0.68
2023-04-02T08:22:42.470Z,1.13
2023-04-02T08:25:10.038Z,2.10
2023-04-02T08:27:37.250Z,1.42
2023-04-02T08:30:06.446Z,1.35
2023-04-02T08:32:33.740Z,0.68
2023-04-02T08:35:02.803Z,0.85
2023-04-02T08:37:29.825Z,0.43
2023-04-02T08:39:56.894Z,1.27
2023-04-02T08:42:30.552Z,0.30
2023-04-02T08:45:21.212Z,0.57
2023-04-02T08:47:53.495Z,0.95
2023-04-02T08:50:29.148Z,2.97
2023-04-02T08:52:57.215Z,2.13
2023-04-02T08:58:04.009Z,1.85
2023-04-02T09:00:37.449Z,3.08
2023-04-02T09:03:09.071Z,1.15
2023-04-02T09:05:39.962Z,1.83
2023-04-02T09:08:16.831Z,0.93
2023-04-02T09:10:49.312Z,0.90
2023-04-02T09:13:19.870Z,0.82
2023-04-02T09:15:47.400Z,1.52
2023-04-02T09:18:16.687Z,1.15
2023-04-02T09:20:45.686Z,0.50
2023-04-02T09:23:17.637Z,0.60
2023-04-02T09:25:57.425Z,1.70
2023-04-02T09:28:30.542Z,0.95
2023-04-02T09:31:02.162Z,1.83
2023-04-02T09:33:43.002Z,0.43
2023-04-02T09:36:26.934Z,0.30
2023-04-02T09:38:59.242Z,1.10
2023-04-02T09:41:29.212Z,0.93
2023-04-02T09:44:21.281Z,0.68
2023-04-02T09:46:59.862Z,0.68
2023-04-02T09:49:29.316Z,0.77
2023-04-02T09:52:19.391Z,1.65
2023-04-02T09:54:47.080Z,0.85
2023-04-02T09:57:24.888Z,0.32
2023-04-02T10:00:25.227Z,0.30
2023-04-02T10:03:04.272Z,0.28
2023-04-02T10:05:40.544Z,0.35
2023-04-02T10:08:19.041Z,0.90
2023-04-02T10:10:48.719Z,0.47
2023-04-02T10:13:19.967Z,0.30
2023-04-02T10:15:49.138Z,0.95
2023-04-02T10:18:21.401Z,0.57
2023-04-02T10:20:51.680Z,1.92
2023-04-02T10:23:20.294Z,0.30
2023-04-02T10:25:52.024Z,0.30
2023-04-02T10:28:25.948Z,0.10
2023-04-02T10:30:57.355Z,0.50
2023-04-02T10:33:28.817Z,0.25
2023-04-02T10:36:01.898Z,0.98
2023-04-02T10:38:38.869Z,0.60
2023-04-02T10:41:16.326Z,0.90
2023-04-02T10:44:21.958Z,0.30
2023-04-02T10:47:06.590Z,0.35
2023-04-02T10:49:42.032Z,0.15
2023-04-02T10:52:13.660Z,0.75
2023-04-02T10:54:47.022Z,1.20
2023-04-02T10:57:26.691Z,0.13
2023-04-02T10:59:57.604Z,0.13
2023-04-02T11:02:31.989Z,1.77
2023-04-02T11:05:04.006Z,1.52
2023-04-02T11:07:43.714Z,0.57
2023-04-02T11:10:15.606Z,0.28
2023-04-02T11:12:49.939Z,0.93
2023-04-02T11:17:44.450Z,0.28
2023-04-02T11:20:57.420Z,0.32
2023-04-02T11:23:28.746Z,0.25
2023-04-02T11:26:33.100Z,0.40
2023-04-02T11:29:13.604Z,0.63
2023-04-02T11:31:40.809Z,0.60
2023-04-02T11:34:12.939Z,0.10
2023-04-02T11:37:00.528Z,0.47
2023-04-02T11:39:54.093Z,0.20
2023-04-02T11:42:30.497Z,0.30
2023-04-02T11:45:00.416Z,0.93
2023-04-02T11:47:28.001Z,0.10
2023-04-02T11:50:03.487Z,0.73
2023-04-02T11:52:36.876Z,1.50
2023-04-02T11:55:24.440Z,0.90
2023-04-02T11:58:01.822Z,0.40
2023-04-02T12:00:40.132Z,0.25
2023-04-02T12:03:45.493Z,0.30
2023-04-02T12:06:20.651Z,1.40
2023-04-02T12:08:58.054Z,0.10
2023-04-02T12:11:33.531Z,0.38
2023-04-02T12:14:02.911Z,0.55
2023-04-02T12:16:33.709Z,0.40
2023-04-02T12:19:01.602Z,0.65
2023-04-02T12:21:30.607Z,0.30
2023-04-02T12:23:59.136Z,0.60
2023-04-02T12:26:32.463Z,0.30
2023-04-02T12:29:19.079Z,0.80
2023-04-02T12:31:47.978Z,0.30
2023-04-02T12:34:16.676Z,0.22
2023-04-02T12:36:55.196Z,0.20
2023-04-02T12:39:23.227Z,1.42
2023-04-02T12:41:51.490Z,0.52
2023-04-02T12:44:24.337Z,0.47
2023-04-02T12:46:52.385Z,0.55
2023-04-02T12:49:28.840Z,0.30
2023-04-02T12:51:56.692Z,0.30
2023-04-02T12:54:24.099Z,2.10
2023-04-02T12:56:51.495Z,0.15
2023-04-02T12:59:29.310Z,0.15
2023-04-02T13:01:57.495Z,0.45
2023-04-02T13:04:24.514Z,0.52
2023-04-02T13:06:54.980Z,0.47
2023-04-02T13:09:34.782Z,0.43
2023-04-02T13:12:03.060Z,1.98
2023-04-02T13:14:31.479Z,1.35
2023-04-02T13:16:58.545Z,0.40
2023-04-02T13:19:28.554Z,0.90
2023-04-02T13:21:57.142Z,0.35
2023-04-02T13:24:25.683Z,0.40
2023-04-02T13:26:56.486Z,0.25
2023-04-02T13:29:26.428Z,0.82
2023-04-02T13:31:57.352Z,0.20
2023-04-02T13:34:24.703Z,0.50
2023-04-02T13:36:51.998Z,0.55
2023-04-02T13:39:20.607Z,0.30
2023-04-02T13:41:49.251Z,0.50
2023-04-02T13:44:22.871Z,0.75
2023-04-02T13:46:50.550Z,0.40
2023-04-02T13:49:19.467Z,0.63
2023-04-02T13:51:48.037Z,0.13
2023-04-02T13:54:22.421Z,0.75
2023-04-02T13:56:49.524Z,0.50
2023-04-02T13:59:16.705Z,0.25
2023-04-02T14:01:44.977Z,0.30
2023-04-02T14:04:16.374Z,0.35
2023-04-02T14:07:08.445Z,0.30
2023-04-02T14:09:42.417Z,0.05
2023-04-02T14:12:17.267Z,0.32
2023-04-02T14:15:12.550Z,0.32
2023-04-02T14:17:49.851Z,0.20
2023-04-02T14:20:25.976Z,0.80
2023-04-02T14:23:07.176Z,0.98
2023-04-02T14:25:39.137Z,0.73
2023-04-02T14:28:10.670Z,0.30
2023-04-02T14:30:45.492Z,0.20
2023-04-02T14:33:20.976Z,0.47
2023-04-02T14:35:52.470Z,0.25
2023-04-02T14:38:24.989Z,0.30
2023-04-02T14:40:56.159Z,0.20
2023-04-02T14:43:24.942Z,1.75
2023-04-02T14:45:58.256Z,0.88
2023-04-02T14:48:37.785Z,0.65
2023-04-02T14:51:07.538Z,0.22
2023-04-02T14:53:47.444Z,1.00
2023-04-02T14:56:15.834Z,0.63
2023-04-02T14:58:43.906Z,4.10
2023-04-02T15:03:44.697Z,0.60
2023-04-02T15:06:15.856Z,0.60
2023-04-02T15:08:52.367Z,0.82
2023-04-02T15:11:29.635Z,1.02
2023-04-02T15:14:00.457Z,0.98
2023-04-02T15:16:27.729Z,0.65
2023-04-02T15:18:56.794Z,0.98
2023-04-02T15:21:49.833Z,0.30
2023-04-02T15:24:31.077Z,0.77
2023-04-02T15:27:09.324Z,0.57
2023-04-02T15:32:23.865Z,0.98
2023-04-02T15:34:54.710Z,0.63
2023-04-02T15:37:23.992Z,1.85
2023-04-02T15:40:19.858Z,2.35
2023-04-02T15:42:53.366Z,0.70
2023-04-02T15:45:29.048Z,1.10
2023-04-02T15:48:18.469Z,1.70
2023-04-02T15:51:08.557Z,2.10
2023-04-02T15:53:43.536Z,3.38
2023-04-02T15:56:36.110Z,7.07
2023-04-02T15:59:19.930Z,5.03
2023-04-02T16:01:54.468Z,3.17
2023-04-02T16:07:20.482Z,4.60
2023-04-02T16:09:54.407Z,4.10
2023-04-02T16:12:26.192Z,2.03
2023-04-02T16:14:55.956Z,3.38
2023-04-02T16:17:28.460Z,6.10
2023-04-02T16:19:58.399Z,6.13
2023-04-02T16:22:29.085Z,7.57
2023-04-02T16:25:01.071Z,8.45
2023-04-02T16:27:32.540Z,4.90
2023-04-02T16:30:22.565Z,4.25
2023-04-02T16:33:00.043Z,5.60
2023-04-02T16:38:09.437Z,6.25
2023-04-02T16:40:40.688Z,2.33
2023-04-02T16:43:18.319Z,2.65
2023-04-02T16:45:50.992Z,3.15
2023-04-02T16:48:24.280Z,4.05
2023-04-02T16:50:58.162Z,2.38
2023-04-02T16:53:31.822Z,2.67
2023-04-02T16:56:12.034Z,2.03
2023-04-02T16:58:46.882Z,1.85
2023-04-02T17:04:14.228Z,1.58
2023-04-02T17:06:43.419Z,2.63
2023-04-02T17:09:17.695Z,2.05
2023-04-02T17:11:49.176Z,2.22
2023-04-02T17:14:24.068Z,1.58
2023-04-02T17:16:53.296Z,1.35
2023-04-02T17:19:21.609Z,1.42
2023-04-02T17:24:24.432Z,2.03
2023-04-02T17:26:53.915Z,0.98
2023-04-02T17:29:27.764Z,2.45
2023-04-02T17:32:00.006Z,1.08
2023-04-02T17:34:28.363Z,0.93
2023-04-02T17:37:03.328Z,0.60
2023-04-02T17:39:35.986Z,1.60
2023-04-02T17:42:10.472Z,1.15
2023-04-02T17:44:46.683Z,1.33
2023-04-02T17:47:20.007Z,2.17
2023-04-02T17:49:52.380Z,1.70
2023-04-02T17:52:22.287Z,0.82
2023-04-02T17:54:58.161Z,0.73
2023-04-02T17:57:36.029Z,1.70
2023-04-02T18:00:14.625Z,0.82
2023-04-02T18:02:59.932Z,0.43
2023-04-02T18:05:31.446Z,1.80
2023-04-02T18:08:05.319Z,0.60
2023-04-02T18:10:36.988Z,0.63
2023-04-02T18:13:07.828Z,2.30
2023-04-02T18:15:42.562Z,4.20
2023-04-02T18:18:19.413Z,0.98
2023-04-02T18:20:54.044Z,1.00
2023-04-02T18:23:36.432Z,3.45
2023-04-02T18:26:08.252Z,2.55
2023-04-02T18:28:43.490Z,2.10
2023-04-02T18:31:19.709Z,1.77
2023-04-02T18:34:05.435Z,1.27
2023-04-02T18:36:39.358Z,1.73
2023-04-02T18:39:13.617Z,1.85
2023-04-02T18:41:46.470Z,2.38
2023-04-02T18:44:31.565Z,2.70
2023-04-02T18:47:05.515Z,2.90
2023-04-02T18:49:36.928Z,2.25
2023-04-02T18:52:10.041Z,2.35
2023-04-02T18:54:39.669Z,2.25
2023-04-02T18:57:11.881Z,2.13
2023-04-02T18:59:42.921Z,1.30
2023-04-02T19:02:26.336Z,2.05
2023-04-02T19:05:00.438Z,2.53
2023-04-02T19:07:29.938Z,1.55
2023-04-02T19:10:00.232Z,1.20
2023-04-02T19:12:32.396Z,2.70
2023-04-02T19:14:59.730Z,2.97
2023-04-02T19:17:31.080Z,2.28
2023-04-02T19:20:07.365Z,2.13
2023-04-02T19:22:41.794Z,3.38
2023-04-02T19:25:26.488Z,2.35
2023-04-02T19:28:02.071Z,2.88
2023-04-02T19:30:50.658Z,2.05
2023-04-02T19:33:41.242Z,2.40
2023-04-02T19:36:26.633Z,0.75
2023-04-02T19:39:01.155Z,1.15
2023-04-02T19:41:32.155Z,1.17
2023-04-02T19:43:59.375Z,2.40
2023-04-02T19:46:26.923Z,1.10
2023-04-02T19:49:00.310Z,1.60
2023-04-02T19:51:27.345Z,1.75
2023-04-02T19:53:54.576Z,1.13
2023-04-02T19:56:22.890Z,1.63
2023-04-02T19:58:50.102Z,1.33
2023-04-02T20:01:17.433Z,1.73
2023-04-02T20:03:44.685Z,2.00
2023-04-02T20:06:14.499Z,1.65
2023-04-02T20:08:41.728Z,1.25
2023-04-02T20:11:08.898Z,1.48
2023-04-02T20:13:36.123Z,1.35
2023-04-02T20:16:04.750Z,1.00
2023-04-02T20:18:32.183Z,0.82
2023-04-02T20:20:59.460Z,2.13
2023-04-02T20:23:27.830Z,1.00
2023-04-02T20:25:57.217Z,1.23
2023-04-02T20:28:25.614Z,1.95
2023-04-02T20:30:53.596Z,3.17
2023-04-02T20:33:22.641Z,3.83
2023-04-02T20:35:50.772Z,1.17
2023-04-02T20:38:18.603Z,1.60
2023-04-02T20:40:52.853Z,1.85
2023-04-02T20:43:20.120Z,0.90
2023-04-02T20:45:53.993Z,1.80
2023-04-02T20:48:21.016Z,1.00
2023-04-02T20:50:49.179Z,1.55
2023-04-02T20:53:16.534Z,0.80
2023-04-02T20:55:43.865Z,1.77
2023-04-02T20:58:12.713Z,1.27
2023-04-02T21:00:39.715Z,2.72
2023-04-02T21:03:06.886Z,0.98
2023-04-02T21:05:34.111Z,1.20
2023-04-02T21:08:01.148Z,1.80
2023-04-02T21:10:28.130Z,1.00
2023-04-02T21:12:55.566Z,0.90
2023-04-02T21:15:27.216Z,1.75
2023-04-02T21:17:54.204Z,1.48
2023-04-02T21:20:21.736Z,1.48
2023-04-02T21:22:49.011Z,0.95
2023-04-02T21:25:16.193Z,1.45
2023-04-02T21:27:43.516Z,1.00
2023-04-02T21:30:12.078Z,1.58
2023-04-02T21:35:09.174Z,0.93
2023-04-02T21:40:09.106Z,1.98
2023-04-02T21:42:37.185Z,4.75
2023-04-02T21:45:04.857Z,1.95
2023-04-02T21:47:31.947Z,2.33
2023-04-02T21:50:00.362Z,1.73
2023-04-02T21:52:27.321Z,3.42
2023-04-02T21:54:54.241Z,2.13
2023-04-02T21:57:21.171Z,2.28
2023-04-02T21:59:48.317Z,2.15
2023-04-02T22:02:16.645Z,1.30
2023-04-02T22:04:43.572Z,1.58
2023-04-02T22:07:12.022Z,2.38
2023-04-02T22:09:39.043Z,2.03
2023-04-02T22:12:08.105Z,2.55
2023-04-02T22:14:35.310Z,1.95
2023-04-02T22:17:03.493Z,1.15
2023-04-02T22:19:30.677Z,1.55
2023-04-02T22:21:57.666Z,3.17
2023-04-02T22:24:26.133Z,1.30
2023-04-02T22:26:53.208Z,1.67
2023-04-02T22:29:20.473Z,1.58
2023-04-02T22:31:47.487Z,1.27
2023-04-02T22:34:14.608Z,2.20
2023-04-02T22:36:41.628Z,2.58
2023-04-02T22:39:12.034Z,2.03
2023-04-02T22:41:40.476Z,1.75
2023-04-02T22:44:07.439Z,1.95
2023-04-02T22:46:34.795Z,1.38
2023-04-02T22:49:02.074Z,1.33
2023-04-02T22:51:29.646Z,2.50
2023-04-02T22:53:57.319Z,2.63
2023-04-02T22:56:26.732Z,3.10
2023-04-02T22:58:55.090Z,3.83
2023-04-02T23:01:25.755Z,3.90
2023-04-02T23:03:53.217Z,2.53
2023-04-02T23:06:20.421Z,2.25
2023-04-02T23:08:47.669Z,3.13
2023-04-02T23:11:16.567Z,3.03
2023-04-02T23:13:44.160Z,1.55
2023-04-02T23:16:13.572Z,2.30
2023-04-02T23:18:42.168Z,1.85
2023-04-02T23:23:36.890Z,2.80
2023-04-02T23:26:05.714Z,1.88
2023-04-02T23:28:32.951Z,4.30
2023-04-02T23:31:01.559Z,0.93
2023-04-02T23:35:57.383Z,1.20
2023-04-02T23:38:25.054Z,1.10
2023-04-02T23:40:52.406Z,1.17
2023-04-02T23:43:19.504Z,1.85
2023-04-02T23:45:48.166Z,2.65
2023-04-02T23:50:44.006Z,2.53
2023-04-02T23:53:11.944Z,1.52
2023-04-02T23:55:39.043Z,1.38
2023-04-02T23:58:06.351Z,1.35
